createdAt,value
2018-06-19T00:01:19.992Z,4.57
2018-06-19T00:03:48.361Z,4.33
2018-06-19T00:06:16.706Z,3.73
2018-06-19T00:08:45.630Z,4.67
2018-06-19T00:11:20.715Z,5.00
2018-06-19T00:13:49.073Z,4.73
2018-06-19T00:16:17.424Z,4.30
2018-06-19T00:18:46.889Z,3.47
2018-06-19T00:21:27.027Z,4.50
2018-06-19T00:23:55.353Z,5.10
2018-06-19T00:26:23.683Z,4.87
2018-06-19T00:28:52.052Z,4.57
2018-06-19T00:31:20.382Z,4.20
2018-06-19T00:33:48.705Z,4.57
2018-06-19T00:36:17.032Z,3.77
2018-06-19T00:38:45.065Z,4.03
2018-06-19T00:41:13.416Z,3.57
2018-06-19T00:43:41.756Z,4.23
2018-06-19T00:46:10.166Z,3.93
2018-06-19T00:48:38.596Z,3.13
2018-06-19T00:51:06.945Z,4.50
2018-06-19T00:53:35.294Z,3.80
2018-06-19T00:56:14.948Z,4.63
2018-06-19T00:58:43.345Z,4.93
2018-06-19T01:01:11.653Z,5.30
2018-06-19T01:03:40.014Z,4.07
2018-06-19T01:06:08.448Z,4.50
2018-06-19T01:08:36.795Z,4.33
2018-06-19T01:11:05.146Z,5.10
2018-06-19T01:13:33.454Z,4.57
2018-06-19T01:16:01.787Z,4.27
2018-06-19T01:18:30.233Z,4.93
2018-06-19T01:20:58.460Z,4.80
2018-06-19T01:23:26.813Z,5.17
2018-06-19T01:25:55.154Z,5.23
2018-06-19T01:28:23.531Z,4.60
2018-06-19T01:30:51.880Z,4.93
2018-06-19T01:33:20.226Z,4.83
2018-06-19T01:35:48.608Z,4.03
2018-06-19T01:38:17.013Z,5.23
2018-06-19T01:40:45.285Z,6.03
2018-06-19T01:43:13.676Z,4.20
2018-06-19T01:45:42.104Z,3.83
2018-06-19T01:48:10.450Z,5.90
2018-06-19T01:50:39.240Z,4.83
2018-06-19T01:53:07.580Z,4.13
2018-06-19T01:55:36.028Z,5.03
2018-06-19T01:58:04.414Z,5.03
2018-06-19T02:00:32.748Z,4.77
2018-06-19T02:03:01.075Z,5.37
2018-06-19T02:05:29.409Z,4.63
2018-06-19T02:07:57.751Z,5.93
2018-06-19T02:10:26.062Z,5.43
2018-06-19T02:12:54.436Z,4.40
2018-06-19T02:15:22.848Z,5.60
2018-06-19T02:17:51.196Z,5.13
2018-06-19T02:20:20.524Z,5.30
2018-06-19T02:22:48.850Z,5.40
2018-06-19T02:25:17.186Z,4.67
2018-06-19T02:27:46.104Z,5.80
2018-06-19T02:30:14.436Z,5.97
2018-06-19T02:32:42.711Z,5.23
2018-06-19T02:35:11.080Z,5.33
2018-06-19T02:37:39.434Z,5.80
2018-06-19T02:40:07.801Z,5.20
2018-06-19T02:42:36.182Z,5.23
2018-06-19T02:45:04.957Z,4.07
2018-06-19T02:47:33.236Z,4.07
2018-06-19T02:50:01.624Z,5.53
2018-06-19T02:52:30.001Z,5.50
2018-06-19T02:54:58.360Z,5.20
2018-06-19T02:57:26.710Z,5.87
2018-06-19T02:59:55.032Z,5.30
2018-06-19T03:02:23.559Z,5.63
2018-06-19T03:04:51.960Z,3.20
2018-06-19T03:07:20.294Z,2.73
2018-06-19T03:09:48.660Z,2.33
2018-06-19T03:12:16.994Z,1.37
2018-06-19T03:14:45.323Z,1.80
2018-06-19T03:17:13.663Z,1.60
2018-06-19T03:19:42.012Z,1.40
2018-06-19T03:22:10.567Z,1.20
2018-06-19T03:24:38.895Z,2.13
2018-06-19T03:27:07.298Z,2.13
2018-06-19T03:29:35.661Z,0.80
2018-06-19T03:32:03.994Z,1.70
2018-06-19T03:34:32.375Z,1.80
2018-06-19T03:37:00.737Z,2.10
2018-06-19T03:39:29.063Z,2.40
2018-06-19T03:41:57.403Z,4.77
2018-06-19T03:44:25.733Z,4.97
2018-06-19T03:46:54.066Z,3.63
2018-06-19T03:49:22.409Z,2.60
2018-06-19T03:51:50.822Z,2.10
2018-06-19T03:54:20.245Z,3.43
2018-06-19T03:56:48.904Z,4.93
2018-06-19T03:59:17.298Z,5.03
2018-06-19T04:01:45.545Z,4.07
2018-06-19T04:04:13.887Z,6.07
2018-06-19T04:06:42.305Z,5.83
2018-06-19T04:09:10.651Z,6.10
2018-06-19T04:11:38.996Z,4.83
2018-06-19T04:14:14.020Z,6.13
2018-06-19T04:16:42.973Z,5.97
2018-06-19T04:19:12.016Z,5.27
2018-06-19T04:21:40.257Z,4.80
2018-06-19T04:24:08.603Z,2.70
2018-06-19T04:26:36.951Z,4.23
2018-06-19T04:29:05.900Z,5.57
2018-06-19T04:31:34.253Z,7.87
2018-06-19T04:34:02.595Z,6.63
2018-06-19T04:36:30.647Z,6.13
2018-06-19T04:38:58.989Z,6.80
2018-06-19T04:41:27.309Z,7.00
2018-06-19T04:43:55.655Z,6.67
2018-06-19T04:46:24.004Z,5.70
2018-06-19T04:48:52.357Z,4.43
2018-06-19T04:51:20.732Z,5.13
2018-06-19T04:53:49.477Z,6.37
2018-06-19T04:56:17.855Z,6.30
2018-06-19T04:58:46.203Z,6.40
2018-06-19T05:01:14.561Z,5.27
2018-06-19T05:03:42.998Z,6.10
2018-06-19T05:06:11.357Z,7.23
2018-06-19T05:08:39.723Z,7.67
2018-06-19T05:11:08.082Z,6.63
2018-06-19T05:13:36.459Z,6.40
2018-06-19T05:16:05.113Z,6.40
2018-06-19T05:18:33.549Z,6.23
2018-06-19T05:21:01.966Z,7.03
2018-06-19T05:23:30.419Z,6.93
2018-06-19T05:25:58.825Z,5.73
2018-06-19T05:28:27.300Z,5.80
2018-06-19T05:30:55.731Z,5.87
2018-06-19T05:33:24.175Z,6.53
2018-06-19T05:35:52.261Z,6.47
2018-06-19T05:38:20.687Z,5.13
2018-06-19T05:40:49.055Z,6.30
2018-06-19T05:43:17.389Z,4.57
2018-06-19T05:45:45.769Z,6.47
2018-06-19T05:48:14.146Z,5.80
2018-06-19T05:50:42.534Z,5.20
2018-06-19T05:53:10.954Z,5.27
2018-06-19T05:55:39.304Z,4.40
2018-06-19T05:58:07.659Z,5.27
2018-06-19T06:00:35.993Z,5.80
2018-06-19T06:03:04.361Z,6.30
2018-06-19T06:05:32.786Z,4.73
2018-06-19T06:08:01.167Z,6.60
2018-06-19T06:10:30.247Z,4.83
2018-06-19T06:12:58.563Z,5.17
2018-06-19T06:15:26.911Z,5.90
2018-06-19T06:17:55.417Z,4.63
2018-06-19T06:20:23.829Z,3.90
2018-06-19T06:22:52.203Z,3.93
2018-06-19T06:25:20.513Z,4.37
2018-06-19T06:27:48.859Z,5.47
2018-06-19T06:30:17.212Z,4.93
2018-06-19T06:32:45.841Z,4.10
2018-06-19T06:35:14.317Z,5.27
2018-06-19T06:37:42.647Z,4.77
2018-06-19T06:40:10.989Z,3.90
2018-06-19T06:42:39.371Z,3.93
2018-06-19T06:45:07.735Z,4.07
2018-06-19T06:47:36.109Z,3.83
2018-06-19T06:50:04.465Z,3.70
2018-06-19T06:52:32.910Z,4.23
2018-06-19T06:55:02.056Z,4.93
2018-06-19T06:57:30.391Z,3.73
2018-06-19T06:59:58.724Z,5.23
2018-06-19T07:02:27.107Z,4.40
2018-06-19T07:04:55.549Z,5.23
2018-06-19T07:07:23.869Z,5.17
2018-06-19T07:09:52.257Z,5.00
2018-06-19T07:12:20.931Z,5.10
2018-06-19T07:14:49.273Z,3.93
2018-06-19T07:17:17.631Z,3.70
2018-06-19T07:19:46.010Z,4.47
2018-06-19T07:22:14.355Z,3.90
2018-06-19T07:24:42.777Z,4.73
2018-06-19T07:27:11.245Z,3.90
2018-06-19T07:29:39.637Z,4.47
2018-06-19T07:32:07.689Z,5.37
2018-06-19T07:34:36.035Z,3.20
2018-06-19T07:37:04.454Z,3.37
2018-06-19T07:39:32.702Z,4.77
2018-06-19T07:42:01.038Z,4.00
2018-06-19T07:44:29.369Z,3.77
2018-06-19T07:46:57.691Z,3.20
2018-06-19T07:49:26.116Z,3.30
2018-06-19T07:51:54.481Z,3.77
2018-06-19T07:54:22.945Z,3.27
2018-06-19T07:56:51.344Z,3.33
2018-06-19T07:59:19.909Z,3.23
2018-06-19T08:01:48.241Z,3.20
2018-06-19T08:04:16.495Z,3.37
2018-06-19T08:06:44.847Z,2.70
2018-06-19T08:09:13.259Z,3.00
2018-06-19T08:11:41.594Z,2.53
2018-06-19T08:14:10.298Z,2.60
2018-06-19T08:16:38.658Z,2.97
2018-06-19T08:19:07.024Z,3.53
2018-06-19T08:21:36.102Z,2.37
2018-06-19T08:24:04.430Z,3.20
2018-06-19T08:26:32.803Z,3.13
2018-06-19T08:29:01.263Z,3.53
2018-06-19T08:31:30.207Z,3.03
2018-06-19T08:34:05.320Z,4.20
2018-06-19T08:36:33.717Z,3.43
2018-06-19T08:39:02.111Z,3.53
2018-06-19T08:41:30.496Z,3.50
2018-06-19T08:43:58.812Z,4.33
2018-06-19T08:46:27.138Z,4.40
2018-06-19T08:48:55.501Z,4.10
2018-06-19T08:51:23.836Z,4.13
2018-06-19T08:53:58.598Z,4.57
2018-06-19T08:56:26.926Z,4.23
2018-06-19T08:58:55.333Z,5.10
2018-06-19T09:01:23.672Z,4.93
2018-06-19T09:03:52.673Z,4.13
2018-06-19T09:06:21.610Z,4.13
2018-06-19T09:08:50.009Z,4.33
2018-06-19T09:11:18.577Z,4.20
2018-06-19T09:13:46.899Z,4.63
2018-06-19T09:16:14.962Z,4.20
2018-06-19T09:18:43.011Z,4.30
2018-06-19T09:21:11.358Z,2.80
2018-06-19T09:23:39.712Z,3.87
2018-06-19T09:26:08.325Z,4.10
2018-06-19T09:28:36.691Z,3.73
2018-06-19T09:31:05.431Z,3.97
2018-06-19T09:33:33.861Z,3.47
2018-06-19T09:36:02.189Z,3.60
2018-06-19T09:38:30.586Z,3.50
2018-06-19T09:40:59.012Z,3.20
2018-06-19T09:43:27.348Z,2.83
2018-06-19T09:45:55.713Z,2.90
2018-06-19T09:48:24.074Z,2.20
2018-06-19T09:50:52.432Z,2.83
2018-06-19T09:53:21.275Z,2.53
2018-06-19T09:55:49.735Z,2.57
2018-06-19T09:58:18.382Z,2.17
2018-06-19T10:00:46.458Z,2.63
2018-06-19T10:03:15.702Z,2.30
2018-06-19T10:05:43.984Z,2.03
2018-06-19T10:08:12.308Z,2.50
2018-06-19T10:10:40.658Z,2.70
2018-06-19T10:13:09.025Z,2.07
2018-06-19T10:15:37.379Z,1.93
2018-06-19T10:18:05.728Z,2.30
2018-06-19T10:20:34.140Z,1.83
2018-06-19T10:23:02.450Z,2.10
2018-06-19T10:25:30.784Z,2.23
2018-06-19T10:27:59.160Z,2.53
2018-06-19T10:30:27.520Z,1.70
2018-06-19T10:32:55.956Z,2.63
2018-06-19T10:35:24.287Z,1.87
2018-06-19T10:37:53.177Z,1.50
2018-06-19T10:40:21.730Z,2.10
2018-06-19T10:42:50.059Z,1.83
2018-06-19T10:45:18.428Z,1.90
2018-06-19T10:47:46.758Z,1.67
2018-06-19T10:50:15.105Z,1.40
2018-06-19T10:52:43.512Z,1.30
2018-06-19T10:55:11.862Z,1.90
2018-06-19T10:57:40.226Z,1.67
2018-06-19T11:00:08.873Z,1.50
2018-06-19T11:02:37.215Z,2.00
2018-06-19T11:05:05.846Z,1.40
2018-06-19T11:07:33.834Z,1.43
2018-06-19T11:10:02.500Z,1.37
2018-06-19T11:12:30.840Z,1.40
2018-06-19T11:14:59.180Z,1.17
2018-06-19T11:17:27.555Z,1.07
2018-06-19T11:19:55.885Z,1.50
2018-06-19T11:22:24.242Z,1.80
2018-06-19T11:24:52.648Z,1.80
2018-06-19T11:27:20.979Z,2.30
2018-06-19T11:29:49.366Z,1.63
2018-06-19T11:32:17.786Z,1.93
2018-06-19T11:34:46.134Z,1.63
2018-06-19T11:37:14.479Z,1.53
2018-06-19T11:39:42.806Z,1.83
2018-06-19T11:42:11.166Z,1.70
2018-06-19T11:44:39.436Z,1.37
2018-06-19T11:47:07.900Z,1.73
2018-06-19T11:49:36.240Z,1.80
2018-06-19T11:52:04.599Z,2.87
2018-06-19T11:54:33.109Z,1.90
2018-06-19T11:57:01.682Z,2.00
2018-06-19T11:59:30.050Z,3.80
2018-06-19T12:01:58.420Z,2.80
2018-06-19T12:04:26.780Z,1.83
2018-06-19T12:06:55.193Z,1.70
2018-06-19T12:09:23.532Z,2.23
2018-06-19T12:11:51.864Z,1.83
2018-06-19T12:14:20.248Z,2.27
2018-06-19T12:16:48.582Z,2.20
2018-06-19T12:19:17.510Z,2.77
2018-06-19T12:21:45.880Z,2.70
2018-06-19T12:24:14.242Z,3.03
2018-06-19T12:26:42.752Z,2.63
2018-06-19T12:29:11.123Z,2.00
2018-06-19T12:31:39.522Z,3.53
2018-06-19T12:34:07.903Z,3.07
2018-06-19T12:36:36.375Z,2.93
2018-06-19T12:39:07.420Z,2.50
2018-06-19T12:41:40.227Z,3.90
2018-06-19T12:44:08.862Z,3.63
2018-06-19T12:46:37.604Z,2.80
2018-06-19T12:49:05.868Z,2.83
2018-06-19T12:51:45.880Z,3.20
2018-06-19T12:56:22.347Z,2.43
2018-06-19T12:58:50.717Z,3.43
2018-06-19T13:01:19.781Z,3.47
2018-06-19T13:03:59.406Z,3.43
2018-06-19T13:06:30.633Z,4.13
2018-06-19T13:08:59.005Z,3.67
2018-06-19T13:11:27.364Z,4.33
2018-06-19T13:14:06.846Z,3.23
2018-06-19T13:16:46.506Z,3.63
2018-06-19T13:21:24.048Z,3.17
2018-06-19T13:23:52.395Z,3.90
2018-06-19T13:26:20.754Z,4.00
2018-06-19T13:29:58.908Z,4.57
2018-06-19T13:32:27.535Z,5.17
2018-06-19T13:34:55.914Z,5.17
2018-06-19T13:37:24.285Z,5.80
2018-06-19T13:41:04.365Z,5.10
2018-06-19T13:43:44.305Z,4.73
2018-06-19T13:46:12.985Z,5.47
2018-06-19T13:48:41.982Z,5.97
2018-06-19T13:51:11.003Z,6.60
2018-06-19T13:53:39.640Z,6.57
2018-06-19T13:57:18.915Z,6.10
2018-06-19T13:59:47.824Z,5.57
2018-06-19T14:02:16.484Z,6.03
2018-06-19T14:04:44.863Z,4.90
2018-06-19T14:07:13.381Z,4.30
2018-06-19T14:09:52.989Z,6.00
2018-06-19T14:13:09.183Z,5.20
2018-06-19T14:15:39.113Z,3.47
2018-06-19T14:18:07.931Z,3.47
2018-06-19T14:20:36.152Z,4.07
2018-06-19T14:23:04.829Z,3.47
2018-06-19T14:25:33.195Z,3.33
2018-06-19T14:28:01.585Z,3.73
2018-06-19T14:30:30.149Z,2.90
2018-06-19T14:32:58.567Z,3.77
2018-06-19T14:35:26.563Z,4.43
2018-06-19T14:37:54.905Z,4.77
2018-06-19T14:40:23.340Z,5.27
2018-06-19T14:42:51.692Z,5.50
2018-06-19T14:45:20.125Z,4.97
2018-06-19T14:47:48.459Z,4.97
2018-06-19T14:50:16.788Z,4.10
2018-06-19T14:52:45.181Z,4.83
2018-06-19T14:55:13.503Z,4.60
2018-06-19T14:57:41.876Z,4.53
2018-06-19T15:00:10.981Z,4.20
2018-06-19T15:02:45.540Z,3.73
2018-06-19T15:05:13.926Z,3.63
2018-06-19T15:07:47.567Z,3.40
2018-06-19T15:10:16.296Z,4.33
2018-06-19T15:12:44.629Z,3.30
2018-06-19T15:15:12.964Z,3.13
2018-06-19T15:17:41.435Z,3.50
2018-06-19T15:20:09.841Z,2.60
2018-06-19T15:22:38.166Z,2.93
2018-06-19T15:25:06.533Z,3.10
2018-06-19T15:27:34.894Z,2.90
2018-06-19T15:30:03.301Z,2.33
2018-06-19T15:32:31.865Z,2.33
2018-06-19T15:35:00.196Z,2.37
2018-06-19T15:37:28.556Z,2.30
2018-06-19T15:39:56.920Z,2.20
2018-06-19T15:42:25.332Z,1.80
2018-06-19T15:44:53.690Z,1.90
2018-06-19T15:47:22.036Z,2.37
2018-06-19T15:49:50.441Z,1.43
2018-06-19T15:52:18.815Z,1.10
2018-06-19T15:54:47.252Z,1.40
2018-06-19T15:57:15.619Z,1.40
2018-06-19T15:59:44.235Z,1.20
2018-06-19T16:02:13.052Z,0.73
2018-06-19T16:04:41.341Z,3.43
2018-06-19T16:07:09.707Z,1.73
2018-06-19T16:09:38.052Z,1.20
2018-06-19T16:12:06.367Z,1.00
2018-06-19T16:14:34.717Z,0.90
2018-06-19T16:17:03.131Z,1.20
2018-06-19T16:19:31.475Z,1.33
2018-06-19T16:22:00.367Z,1.13
2018-06-19T16:24:28.704Z,1.70
2018-06-19T16:26:57.163Z,1.20
2018-06-19T16:29:25.668Z,1.40
2018-06-19T16:31:54.027Z,1.80
2018-06-19T16:34:22.414Z,1.50
2018-06-19T16:36:50.763Z,1.20
2018-06-19T16:39:25.580Z,1.23
2018-06-19T16:41:53.932Z,1.20
2018-06-19T16:44:22.299Z,0.97
2018-06-19T16:46:50.666Z,1.13
2018-06-19T16:49:19.048Z,1.00
2018-06-19T16:51:47.424Z,0.97
2018-06-19T16:54:15.816Z,1.10
2018-06-19T16:56:44.187Z,0.90
2018-06-19T16:59:12.556Z,1.17
2018-06-19T17:01:40.949Z,1.67
2018-06-19T17:04:09.321Z,1.37
2018-06-19T17:06:38.271Z,1.30
2018-06-19T17:09:07.084Z,1.57
2018-06-19T17:11:35.583Z,0.73
2018-06-19T17:14:04.113Z,1.20
2018-06-19T17:16:32.533Z,1.30
2018-06-19T17:19:00.916Z,1.57
2018-06-19T17:21:29.270Z,1.30
2018-06-19T17:23:57.642Z,1.00
2018-06-19T17:26:25.973Z,1.00
2018-06-19T17:28:54.326Z,0.70
2018-06-19T17:31:22.675Z,0.97
2018-06-19T17:33:50.739Z,1.00
2018-06-19T17:36:18.846Z,1.47
2018-06-19T17:38:53.768Z,1.30
2018-06-19T17:41:22.162Z,0.90
2018-06-19T17:43:50.556Z,0.80
2018-06-19T17:46:18.907Z,1.30
2018-06-19T17:48:47.280Z,0.77
2018-06-19T17:51:16.356Z,0.93
2018-06-19T17:53:44.740Z,0.80
2018-06-19T17:56:13.068Z,1.03
2018-06-19T17:58:41.444Z,0.90
2018-06-19T18:01:09.808Z,1.47
2018-06-19T18:03:38.180Z,1.30
2018-06-19T18:06:06.571Z,1.00
2018-06-19T18:08:34.932Z,1.30
2018-06-19T18:11:03.314Z,1.10
2018-06-19T18:13:31.790Z,0.97
2018-06-19T18:16:00.601Z,1.00
2018-06-19T18:18:29.024Z,1.03
2018-06-19T18:20:57.396Z,1.07
2018-06-19T18:23:25.732Z,0.93
2018-06-19T18:25:54.110Z,1.30
2018-06-19T18:28:22.543Z,1.10
2018-06-19T18:30:50.997Z,1.13
2018-06-19T18:33:19.368Z,1.00
2018-06-19T18:35:47.422Z,1.20
2018-06-19T18:38:15.798Z,1.40
2018-06-19T18:40:44.146Z,1.10
2018-06-19T18:43:12.531Z,1.20
2018-06-19T18:45:41.659Z,1.10
2018-06-19T18:48:10.009Z,1.10
2018-06-19T18:50:38.451Z,1.00
2018-06-19T18:53:06.860Z,1.63
2018-06-19T18:55:34.924Z,1.27
2018-06-19T18:58:02.986Z,1.20
2018-06-19T19:00:31.108Z,0.97
2018-06-19T19:02:59.523Z,1.03
2018-06-19T19:05:27.846Z,0.90
2018-06-19T19:07:56.235Z,1.10
2018-06-19T19:10:29.820Z,1.27
2018-06-19T19:12:58.165Z,0.83
2018-06-19T19:15:32.477Z,0.77
2018-06-19T19:18:06.115Z,2.00
2018-06-19T19:20:34.604Z,1.60
2018-06-19T19:23:02.987Z,1.50
2018-06-19T19:25:32.051Z,1.30
2018-06-19T19:28:05.357Z,1.47
2018-06-19T19:30:33.420Z,1.20
2018-06-19T19:33:01.688Z,1.13
2018-06-19T19:35:30.501Z,0.80
2018-06-19T19:38:04.182Z,1.50
2018-06-19T19:40:32.605Z,1.20
2018-06-19T19:43:01.441Z,1.60
2018-06-19T19:45:30.648Z,1.40
2018-06-19T19:48:04.365Z,1.67
2018-06-19T19:50:32.604Z,1.40
2018-06-19T19:53:01.044Z,1.13
2018-06-19T19:55:29.406Z,1.47
2018-06-19T19:58:03.020Z,1.30
2018-06-19T20:00:31.392Z,1.40
2018-06-19T20:02:59.755Z,1.77
2018-06-19T20:05:28.477Z,1.60
2018-06-19T20:07:56.856Z,1.53
2018-06-19T20:10:25.756Z,1.10
2018-06-19T20:12:54.140Z,1.90
2018-06-19T20:15:22.464Z,2.07
2018-06-19T20:17:51.013Z,1.63
2018-06-19T20:20:19.332Z,1.50
2018-06-19T20:22:47.680Z,1.73
2018-06-19T20:25:16.120Z,1.73
2018-06-19T20:27:44.497Z,1.10
2018-06-19T20:30:12.852Z,1.70
2018-06-19T20:32:41.172Z,1.70
2018-06-19T20:35:09.546Z,1.90
2018-06-19T20:37:37.916Z,1.30
2018-06-19T20:40:06.250Z,2.00
2018-06-19T20:42:34.639Z,2.10
2018-06-19T20:45:03.037Z,1.30
2018-06-19T20:47:34.340Z,1.17
2018-06-19T20:50:02.746Z,1.70
2018-06-19T20:52:30.981Z,1.50
2018-06-19T20:54:59.344Z,1.07
2018-06-19T20:57:27.682Z,1.40
2018-06-19T20:59:56.583Z,1.50
2018-06-19T21:02:24.983Z,2.47
2018-06-19T21:04:53.349Z,1.70
2018-06-19T21:07:21.706Z,1.83
2018-06-19T21:09:49.742Z,1.80
2018-06-19T21:12:18.096Z,2.10
2018-06-19T21:14:46.520Z,3.00
2018-06-19T21:17:14.592Z,3.27
2018-06-19T21:19:42.662Z,2.93
2018-06-19T21:22:10.908Z,2.50
2018-06-19T21:24:39.272Z,2.60
2018-06-19T21:27:07.711Z,1.80
2018-06-19T21:29:36.076Z,2.23
2018-06-19T21:32:04.636Z,2.80
2018-06-19T21:34:33.032Z,1.80
2018-06-19T21:37:01.348Z,1.57
2018-06-19T21:39:29.706Z,2.90
2018-06-19T21:41:57.736Z,2.00
2018-06-19T21:44:26.064Z,3.03
2018-06-19T21:46:54.408Z,2.30
2018-06-19T21:49:22.739Z,2.80
2018-06-19T21:51:51.097Z,2.33
2018-06-19T21:54:19.442Z,1.70
2018-06-19T21:56:47.800Z,2.20
2018-06-19T21:59:16.207Z,2.53
2018-06-19T22:01:44.551Z,1.60
2018-06-19T22:04:12.906Z,2.70
2018-06-19T22:06:41.223Z,2.17
2018-06-19T22:09:09.588Z,2.30
2018-06-19T22:11:37.919Z,3.10
2018-06-19T22:14:06.372Z,2.43
2018-06-19T22:16:34.439Z,4.77
2018-06-19T22:19:02.800Z,2.83
2018-06-19T22:21:31.200Z,1.93
2018-06-19T22:23:59.645Z,3.20
2018-06-19T22:26:28.005Z,3.20
2018-06-19T22:28:57.020Z,2.20
2018-06-19T22:31:25.472Z,2.37
2018-06-19T22:33:53.848Z,3.40
2018-06-19T22:36:22.182Z,3.37
2018-06-19T22:38:50.537Z,2.23
2018-06-19T22:41:18.907Z,2.40
2018-06-19T22:43:47.234Z,3.03
2018-06-19T22:46:15.311Z,3.10
2018-06-19T22:48:43.353Z,3.10
2018-06-19T22:51:11.702Z,3.43
2018-06-19T22:53:40.020Z,2.97
2018-06-19T22:56:09.101Z,2.53
2018-06-19T22:58:37.462Z,4.60
2018-06-19T23:01:06.057Z,2.37
2018-06-19T23:03:34.411Z,4.07
2018-06-19T23:06:02.865Z,4.67
2018-06-19T23:08:33.855Z,3.33
2018-06-19T23:11:02.357Z,2.10
2018-06-19T23:13:30.769Z,2.90
2018-06-19T23:15:59.114Z,3.23
2018-06-19T23:18:27.492Z,3.40
2018-06-19T23:20:55.861Z,2.30
2018-06-19T23:23:24.284Z,2.70
2018-06-19T23:25:52.531Z,2.50
2018-06-19T23:28:20.897Z,3.13
2018-06-19T23:30:49.234Z,2.63
2018-06-19T23:33:17.592Z,2.57
2018-06-19T23:35:45.931Z,2.60
2018-06-19T23:38:14.257Z,2.30
2018-06-19T23:40:42.641Z,2.50
2018-06-19T23:43:11.021Z,2.93
2018-06-19T23:45:39.408Z,2.40
2018-06-19T23:48:07.751Z,2.40
2018-06-19T23:50:36.176Z,2.73
2018-06-19T23:53:04.652Z,2.27
2018-06-19T23:55:32.986Z,1.90
2018-06-19T23:58:01.342Z,2.30
